sensor_id;sensor_type;location;lat;lon;timestamp;temperature;humidity
70826;SHT31;58446;41.490;22.098;2023-07-20T00:02:24;30.29;45.82
70826;SHT31;58446;41.490;22.098;2023-07-20T00:04:50;30.35;45.71
70826;SHT31;58446;41.490;22.098;2023-07-20T00:07:15;30.36;45.81
70826;SHT31;58446;41.490;22.098;2023-07-20T00:09:41;30.25;46.05
70826;SHT31;58446;41.490;22.098;2023-07-20T00:12:07;30.41;45.64
70826;SHT31;58446;41.490;22.098;2023-07-20T00:14:33;30.49;45.60
70826;SHT31;58446;41.490;22.098;2023-07-20T00:16:59;30.35;46.07
70826;SHT31;58446;41.490;22.098;2023-07-20T00:19:28;30.33;46.07
70826;SHT31;58446;41.490;22.098;2023-07-20T00:21:54;30.20;46.53
70826;SHT31;58446;41.490;22.098;2023-07-20T00:24:20;30.26;46.35
70826;SHT31;58446;41.490;22.098;2023-07-20T00:26:46;30.25;46.26
70826;SHT31;58446;41.490;22.098;2023-07-20T00:29:12;29.72;47.86
70826;SHT31;58446;41.490;22.098;2023-07-20T00:31:37;29.69;47.53
70826;SHT31;58446;41.490;22.098;2023-07-20T00:34:05;28.95;49.44
70826;SHT31;58446;41.490;22.098;2023-07-20T00:36:32;29.35;48.39
70826;SHT31;58446;41.490;22.098;2023-07-20T00:38:58;28.97;49.24
70826;SHT31;58446;41.490;22.098;2023-07-20T00:41:23;28.41;50.35
70826;SHT31;58446;41.490;22.098;2023-07-20T00:43:49;28.31;50.66
70826;SHT31;58446;41.490;22.098;2023-07-20T00:46:16;28.52;50.37
70826;SHT31;58446;41.490;22.098;2023-07-20T00:48:42;29.16;48.97
70826;SHT31;58446;41.490;22.098;2023-07-20T00:51:08;29.21;48.50
70826;SHT31;58446;41.490;22.098;2023-07-20T00:53:34;29.44;48.22
70826;SHT31;58446;41.490;22.098;2023-07-20T00:56:00;29.61;47.86
70826;SHT31;58446;41.490;22.098;2023-07-20T00:58:26;29.81;47.39
70826;SHT31;58446;41.490;22.098;2023-07-20T01:00:52;29.79;47.40
70826;SHT31;58446;41.490;22.098;2023-07-20T01:03:18;29.90;47.24
70826;SHT31;58446;41.490;22.098;2023-07-20T01:05:57;29.61;47.91
70826;SHT31;58446;41.490;22.098;2023-07-20T01:08:32;29.62;48.08
70826;SHT31;58446;41.490;22.098;2023-07-20T01:11:26;29.35;48.58
70826;SHT31;58446;41.490;22.098;2023-07-20T01:13:54;29.55;48.22
70826;SHT31;58446;41.490;22.098;2023-07-20T01:16:20;29.79;47.83
70826;SHT31;58446;41.490;22.098;2023-07-20T01:18:46;29.96;47.41
70826;SHT31;58446;41.490;22.098;2023-07-20T01:21:18;29.99;47.25
70826;SHT31;58446;41.490;22.098;2023-07-20T01:24:16;30.06;47.19
70826;SHT31;58446;41.490;22.098;2023-07-20T01:29:27;29.96;47.46
70826;SHT31;58446;41.490;22.098;2023-07-20T01:32:00;30.08;47.24
70826;SHT31;58446;41.490;22.098;2023-07-20T01:34:29;30.01;47.54
70826;SHT31;58446;41.490;22.098;2023-07-20T01:36:55;30.04;47.43
70826;SHT31;58446;41.490;22.098;2023-07-20T01:39:23;29.28;49.61
70826;SHT31;58446;41.490;22.098;2023-07-20T01:41:49;28.55;51.02
70826;SHT31;58446;41.490;22.098;2023-07-20T01:44:15;28.63;50.78
70826;SHT31;58446;41.490;22.098;2023-07-20T01:46:40;28.73;50.63
70826;SHT31;58446;41.490;22.098;2023-07-20T01:49:06;28.31;51.73
70826;SHT31;58446;41.490;22.098;2023-07-20T01:51:32;28.60;50.96
70826;SHT31;58446;41.490;22.098;2023-07-20T01:53:57;28.52;51.32
70826;SHT31;58446;41.490;22.098;2023-07-20T01:56:23;28.46;51.25
70826;SHT31;58446;41.490;22.098;2023-07-20T01:58:49;28.82;50.46
70826;SHT31;58446;41.490;22.098;2023-07-20T02:01:15;29.06;49.91
70826;SHT31;58446;41.490;22.098;2023-07-20T02:03:40;29.27;49.56
70826;SHT31;58446;41.490;22.098;2023-07-20T02:06:06;29.18;49.89
70826;SHT31;58446;41.490;22.098;2023-07-20T02:08:32;28.99;50.03
70826;SHT31;58446;41.490;22.098;2023-07-20T02:10:57;29.07;50.05
70826;SHT31;58446;41.490;22.098;2023-07-20T02:13:23;29.10;49.98
70826;SHT31;58446;41.490;22.098;2023-07-20T02:15:49;29.28;49.69
70826;SHT31;58446;41.490;22.098;2023-07-20T02:18:15;29.27;49.67
70826;SHT31;58446;41.490;22.098;2023-07-20T02:20:41;28.62;51.39
70826;SHT31;58446;41.490;22.098;2023-07-20T02:23:07;28.53;51.39
70826;SHT31;58446;41.490;22.098;2023-07-20T02:25:33;28.75;50.95
70826;SHT31;58446;41.490;22.098;2023-07-20T02:27:58;28.27;52.00
70826;SHT31;58446;41.490;22.098;2023-07-20T02:30:24;27.84;52.65
70826;SHT31;58446;41.490;22.098;2023-07-20T02:32:50;27.64;53.33
70826;SHT31;58446;41.490;22.098;2023-07-20T02:35:16;28.04;52.58
70826;SHT31;58446;41.490;22.098;2023-07-20T02:37:41;28.37;51.69
70826;SHT31;58446;41.490;22.098;2023-07-20T02:40:08;28.12;52.88
70826;SHT31;58446;41.490;22.098;2023-07-20T02:42:34;28.31;51.92
70826;SHT31;58446;41.490;22.098;2023-07-20T02:45:02;28.41;52.00
70826;SHT31;58446;41.490;22.098;2023-07-20T02:47:28;28.12;52.58
70826;SHT31;58446;41.490;22.098;2023-07-20T02:49:54;28.44;51.82
70826;SHT31;58446;41.490;22.098;2023-07-20T02:52:20;28.60;51.27
70826;SHT31;58446;41.490;22.098;2023-07-20T02:54:46;28.92;50.73
70826;SHT31;58446;41.490;22.098;2023-07-20T02:57:11;29.13;50.27
70826;SHT31;58446;41.490;22.098;2023-07-20T02:59:37;29.06;50.45
70826;SHT31;58446;41.490;22.098;2023-07-20T03:02:03;28.82;50.92
70826;SHT31;58446;41.490;22.098;2023-07-20T03:04:28;28.89;50.61
70826;SHT31;58446;41.490;22.098;2023-07-20T03:06:54;28.95;50.22
70826;SHT31;58446;41.490;22.098;2023-07-20T03:09:20;28.21;51.36
70826;SHT31;58446;41.490;22.098;2023-07-20T03:11:45;27.60;53.18
70826;SHT31;58446;41.490;22.098;2023-07-20T03:14:11;27.90;52.22
70826;SHT31;58446;41.490;22.098;2023-07-20T03:16:38;28.17;51.90
70826;SHT31;58446;41.490;22.098;2023-07-20T03:19:03;28.34;51.14
70826;SHT31;58446;41.490;22.098;2023-07-20T03:21:30;28.55;50.52
70826;SHT31;58446;41.490;22.098;2023-07-20T03:23:55;28.58;50.51
70826;SHT31;58446;41.490;22.098;2023-07-20T03:26:21;28.42;50.93
70826;SHT31;58446;41.490;22.098;2023-07-20T03:28:47;28.58;50.54
70826;SHT31;58446;41.490;22.098;2023-07-20T03:31:12;28.51;50.82
70826;SHT31;58446;41.490;22.098;2023-07-20T03:33:40;28.63;50.41
70826;SHT31;58446;41.490;22.098;2023-07-20T03:36:06;28.56;50.59
70826;SHT31;58446;41.490;22.098;2023-07-20T03:38:31;28.58;50.54
70826;SHT31;58446;41.490;22.098;2023-07-20T03:40:59;28.51;50.83
70826;SHT31;58446;41.490;22.098;2023-07-20T03:43:26;28.55;50.81
70826;SHT31;58446;41.490;22.098;2023-07-20T03:45:53;28.60;50.49
70826;SHT31;58446;41.490;22.098;2023-07-20T03:48:21;28.68;50.42
70826;SHT31;58446;41.490;22.098;2023-07-20T03:50:48;28.69;50.38
70826;SHT31;58446;41.490;22.098;2023-07-20T03:53:14;28.77;50.13
70826;SHT31;58446;41.490;22.098;2023-07-20T03:55:51;28.84;49.76
70826;SHT31;58446;41.490;22.098;2023-07-20T03:58:18;28.84;49.87
70826;SHT31;58446;41.490;22.098;2023-07-20T04:00:48;28.83;49.87
70826;SHT31;58446;41.490;22.098;2023-07-20T04:03:16;28.79;50.05
70826;SHT31;58446;41.490;22.098;2023-07-20T04:05:42;28.76;50.07
70826;SHT31;58446;41.490;22.098;2023-07-20T04:08:08;28.90;49.73
70826;SHT31;58446;41.490;22.098;2023-07-20T04:10:35;29.02;49.45
70826;SHT31;58446;41.490;22.098;2023-07-20T04:13:01;28.87;49.97
70826;SHT31;58446;41.490;22.098;2023-07-20T04:15:27;28.80;50.11
70826;SHT31;58446;41.490;22.098;2023-07-20T04:17:52;28.76;50.31
70826;SHT31;58446;41.490;22.098;2023-07-20T04:20:18;28.66;50.75
70826;SHT31;58446;41.490;22.098;2023-07-20T04:22:44;28.70;50.60
70826;SHT31;58446;41.490;22.098;2023-07-20T04:25:10;28.82;50.31
70826;SHT31;58446;41.490;22.098;2023-07-20T04:27:36;28.92;49.83
70826;SHT31;58446;41.490;22.098;2023-07-20T04:30:02;29.02;49.78
70826;SHT31;58446;41.490;22.098;2023-07-20T04:32:29;29.07;49.63
70826;SHT31;58446;41.490;22.098;2023-07-20T04:34:55;29.02;50.20
70826;SHT31;58446;41.490;22.098;2023-07-20T04:37:21;28.83;50.92
70826;SHT31;58446;41.490;22.098;2023-07-20T04:39:47;28.58;51.40
70826;SHT31;58446;41.490;22.098;2023-07-20T04:42:12;28.49;52.09
70826;SHT31;58446;41.490;22.098;2023-07-20T04:44:38;28.27;51.90
70826;SHT31;58446;41.490;22.098;2023-07-20T04:47:04;28.11;52.12
70826;SHT31;58446;41.490;22.098;2023-07-20T04:49:29;28.42;51.23
70826;SHT31;58446;41.490;22.098;2023-07-20T04:51:55;28.52;51.01
70826;SHT31;58446;41.490;22.098;2023-07-20T04:54:21;28.65;50.67
70826;SHT31;58446;41.490;22.098;2023-07-20T04:56:47;28.41;50.49
70826;SHT31;58446;41.490;22.098;2023-07-20T04:59:12;28.73;50.48
70826;SHT31;58446;41.490;22.098;2023-07-20T05:01:38;28.73;51.17
70826;SHT31;58446;41.490;22.098;2023-07-20T05:04:04;28.80;50.62
70826;SHT31;58446;41.490;22.098;2023-07-20T05:06:30;28.99;50.27
70826;SHT31;58446;41.490;22.098;2023-07-20T05:08:56;29.24;49.66
70826;SHT31;58446;41.490;22.098;2023-07-20T05:11:21;29.35;49.77
70826;SHT31;58446;41.490;22.098;2023-07-20T05:13:47;29.38;49.87
70826;SHT31;58446;41.490;22.098;2023-07-20T05:16:13;29.43;49.40
70826;SHT31;58446;41.490;22.098;2023-07-20T05:18:38;29.48;49.51
70826;SHT31;58446;41.490;22.098;2023-07-20T05:21:05;29.71;48.78
70826;SHT31;58446;41.490;22.098;2023-07-20T05:23:31;29.81;48.92
70826;SHT31;58446;41.490;22.098;2023-07-20T05:25:58;29.78;47.44
70826;SHT31;58446;41.490;22.098;2023-07-20T05:28:25;29.69;48.09
70826;SHT31;58446;41.490;22.098;2023-07-20T05:30:52;29.95;47.91
70826;SHT31;58446;41.490;22.098;2023-07-20T05:33:18;30.26;47.72
70826;SHT31;58446;41.490;22.098;2023-07-20T05:35:44;30.46;46.91
70826;SHT31;58446;41.490;22.098;2023-07-20T05:38:10;30.27;48.07
70826;SHT31;58446;41.490;22.098;2023-07-20T05:40:37;30.46;46.60
70826;SHT31;58446;41.490;22.098;2023-07-20T05:43:03;30.43;46.39
70826;SHT31;58446;41.490;22.098;2023-07-20T05:45:29;30.57;46.28
70826;SHT31;58446;41.490;22.098;2023-07-20T05:47:55;30.71;46.31
70826;SHT31;58446;41.490;22.098;2023-07-20T05:50:20;30.91;47.16
70826;SHT31;58446;41.490;22.098;2023-07-20T05:52:46;31.01;47.28
70826;SHT31;58446;41.490;22.098;2023-07-20T05:55:13;31.17;46.87
70826;SHT31;58446;41.490;22.098;2023-07-20T05:57:39;31.48;46.53
70826;SHT31;58446;41.490;22.098;2023-07-20T06:00:09;31.58;46.38
70826;SHT31;58446;41.490;22.098;2023-07-20T06:02:35;31.49;45.59
70826;SHT31;58446;41.490;22.098;2023-07-20T06:05:00;31.66;45.84
70826;SHT31;58446;41.490;22.098;2023-07-20T06:07:26;31.82;45.06
70826;SHT31;58446;41.490;22.098;2023-07-20T06:09:52;31.82;44.98
70826;SHT31;58446;41.490;22.098;2023-07-20T06:12:18;31.80;44.91
70826;SHT31;58446;41.490;22.098;2023-07-20T06:14:44;31.89;45.65
70826;SHT31;58446;41.490;22.098;2023-07-20T06:17:09;32.03;45.55
70826;SHT31;58446;41.490;22.098;2023-07-20T06:19:35;32.12;44.67
70826;SHT31;58446;41.490;22.098;2023-07-20T06:22:01;31.96;43.07
70826;SHT31;58446;41.490;22.098;2023-07-20T06:24:26;32.05;44.18
70826;SHT31;58446;41.490;22.098;2023-07-20T06:26:52;32.12;43.60
70826;SHT31;58446;41.490;22.098;2023-07-20T06:29:18;32.28;43.36
70826;SHT31;58446;41.490;22.098;2023-07-20T06:31:44;32.33;43.27
70826;SHT31;58446;41.490;22.098;2023-07-20T06:34:10;32.38;42.86
70826;SHT31;58446;41.490;22.098;2023-07-20T06:36:36;32.26;42.41
70826;SHT31;58446;41.490;22.098;2023-07-20T06:39:01;32.37;43.99
70826;SHT31;58446;41.490;22.098;2023-07-20T06:41:28;32.47;42.66
70826;SHT31;58446;41.490;22.098;2023-07-20T06:43:54;32.55;43.64
70826;SHT31;58446;41.490;22.098;2023-07-20T06:46:26;32.70;42.82
70826;SHT31;58446;41.490;22.098;2023-07-20T06:48:52;32.85;43.24
70826;SHT31;58446;41.490;22.098;2023-07-20T06:51:19;32.68;41.84
70826;SHT31;58446;41.490;22.098;2023-07-20T06:53:45;32.75;42.38
70826;SHT31;58446;41.490;22.098;2023-07-20T06:56:11;32.92;42.76
70826;SHT31;58446;41.490;22.098;2023-07-20T06:58:37;33.11;42.48
70826;SHT31;58446;41.490;22.098;2023-07-20T07:01:06;33.22;41.59
70826;SHT31;58446;41.490;22.098;2023-07-20T07:03:32;33.12;42.31
70826;SHT31;58446;41.490;22.098;2023-07-20T07:05:58;33.26;41.41
70826;SHT31;58446;41.490;22.098;2023-07-20T07:08:24;33.27;41.48
70826;SHT31;58446;41.490;22.098;2023-07-20T07:10:50;33.29;42.83
70826;SHT31;58446;41.490;22.098;2023-07-20T07:13:15;33.09;41.50
70826;SHT31;58446;41.490;22.098;2023-07-20T07:15:42;32.79;42.41
70826;SHT31;58446;41.490;22.098;2023-07-20T07:18:08;32.79;43.57
70826;SHT31;58446;41.490;22.098;2023-07-20T07:20:33;32.92;44.18
70826;SHT31;58446;41.490;22.098;2023-07-20T07:22:59;33.15;42.79
70826;SHT31;58446;41.490;22.098;2023-07-20T07:25:26;32.89;42.53
70826;SHT31;58446;41.490;22.098;2023-07-20T07:27:53;33.05;42.39
70826;SHT31;58446;41.490;22.098;2023-07-20T07:30:19;33.16;42.06
70826;SHT31;58446;41.490;22.098;2023-07-20T07:32:45;33.25;42.52
70826;SHT31;58446;41.490;22.098;2023-07-20T07:35:11;33.22;42.17
70826;SHT31;58446;41.490;22.098;2023-07-20T07:37:37;33.35;41.89
70826;SHT31;58446;41.490;22.098;2023-07-20T07:40:03;33.46;41.62
70826;SHT31;58446;41.490;22.098;2023-07-20T07:42:29;33.50;42.49
70826;SHT31;58446;41.490;22.098;2023-07-20T07:44:55;33.72;41.69
70826;SHT31;58446;41.490;22.098;2023-07-20T07:47:21;33.87;41.11
70826;SHT31;58446;41.490;22.098;2023-07-20T07:49:46;33.76;40.82
70826;SHT31;58446;41.490;22.098;2023-07-20T07:52:12;33.90;40.45
70826;SHT31;58446;41.490;22.098;2023-07-20T07:54:39;33.98;41.19
70826;SHT31;58446;41.490;22.098;2023-07-20T07:57:05;34.08;41.56
70826;SHT31;58446;41.490;22.098;2023-07-20T07:59:31;34.05;42.08
70826;SHT31;58446;41.490;22.098;2023-07-20T08:02:02;34.08;41.22
70826;SHT31;58446;41.490;22.098;2023-07-20T08:04:28;34.25;40.40
70826;SHT31;58446;41.490;22.098;2023-07-20T08:06:56;34.17;40.54
70826;SHT31;58446;41.490;22.098;2023-07-20T08:09:24;34.20;40.77
70826;SHT31;58446;41.490;22.098;2023-07-20T08:11:50;34.34;40.88
70826;SHT31;58446;41.490;22.098;2023-07-20T08:14:16;34.40;39.89
70826;SHT31;58446;41.490;22.098;2023-07-20T08:16:45;34.35;39.82
70826;SHT31;58446;41.490;22.098;2023-07-20T08:19:15;34.42;39.98
70826;SHT31;58446;41.490;22.098;2023-07-20T08:21:42;34.45;40.01
70826;SHT31;58446;41.490;22.098;2023-07-20T08:24:08;34.56;38.36
70826;SHT31;58446;41.490;22.098;2023-07-20T08:26:34;34.65;37.80
70826;SHT31;58446;41.490;22.098;2023-07-20T08:28:59;34.66;37.58
70826;SHT31;58446;41.490;22.098;2023-07-20T08:31:26;34.71;38.97
70826;SHT31;58446;41.490;22.098;2023-07-20T08:33:53;34.58;38.98
70826;SHT31;58446;41.490;22.098;2023-07-20T08:36:19;34.52;38.99
70826;SHT31;58446;41.490;22.098;2023-07-20T08:38:45;34.34;39.20
70826;SHT31;58446;41.490;22.098;2023-07-20T08:41:12;34.23;39.42
70826;SHT31;58446;41.490;22.098;2023-07-20T08:43:41;34.45;40.54
70826;SHT31;58446;41.490;22.098;2023-07-20T08:46:10;34.65;38.97
70826;SHT31;58446;41.490;22.098;2023-07-20T08:48:36;34.64;39.58
70826;SHT31;58446;41.490;22.098;2023-07-20T08:51:04;34.71;39.20
70826;SHT31;58446;41.490;22.098;2023-07-20T08:53:32;34.78;40.53
70826;SHT31;58446;41.490;22.098;2023-07-20T08:55:59;34.88;39.77
70826;SHT31;58446;41.490;22.098;2023-07-20T08:58:26;35.00;38.69
70826;SHT31;58446;41.490;22.098;2023-07-20T09:00:54;35.10;39.46
70826;SHT31;58446;41.490;22.098;2023-07-20T09:03:21;35.06;39.33
70826;SHT31;58446;41.490;22.098;2023-07-20T09:05:46;35.22;39.91
70826;SHT31;58446;41.490;22.098;2023-07-20T09:08:12;35.32;39.14
70826;SHT31;58446;41.490;22.098;2023-07-20T09:10:38;35.43;39.72
70826;SHT31;58446;41.490;22.098;2023-07-20T09:13:03;35.42;38.86
70826;SHT31;58446;41.490;22.098;2023-07-20T09:15:29;35.42;39.82
70826;SHT31;58446;41.490;22.098;2023-07-20T09:17:56;35.54;39.33
70826;SHT31;58446;41.490;22.098;2023-07-20T09:23:43;35.67;38.83
70826;SHT31;58446;41.490;22.098;2023-07-20T09:26:13;35.36;38.41
70826;SHT31;58446;41.490;22.098;2023-07-20T09:28:52;35.10;38.37
70826;SHT31;58446;41.490;22.098;2023-07-20T09:31:20;35.19;38.50
70826;SHT31;58446;41.490;22.098;2023-07-20T09:33:46;35.27;38.52
70826;SHT31;58446;41.490;22.098;2023-07-20T09:36:12;35.49;39.49
70826;SHT31;58446;41.490;22.098;2023-07-20T09:38:41;35.58;38.30
70826;SHT31;58446;41.490;22.098;2023-07-20T09:41:15;35.53;38.22
70826;SHT31;58446;41.490;22.098;2023-07-20T09:43:42;35.46;38.37
70826;SHT31;58446;41.490;22.098;2023-07-20T09:46:08;35.54;38.54
70826;SHT31;58446;41.490;22.098;2023-07-20T09:48:33;35.39;38.37
70826;SHT31;58446;41.490;22.098;2023-07-20T09:50:59;35.07;38.37
70826;SHT31;58446;41.490;22.098;2023-07-20T09:53:26;34.74;39.25
70826;SHT31;58446;41.490;22.098;2023-07-20T09:55:52;34.76;40.28
70826;SHT31;58446;41.490;22.098;2023-07-20T09:58:19;34.99;39.90
70826;SHT31;58446;41.490;22.098;2023-07-20T10:00:45;35.19;38.20
70826;SHT31;58446;41.490;22.098;2023-07-20T10:03:20;35.37;38.16
70826;SHT31;58446;41.490;22.098;2023-07-20T10:05:58;35.44;37.65
70826;SHT31;58446;41.490;22.098;2023-07-20T10:08:25;35.57;37.64
70826;SHT31;58446;41.490;22.098;2023-07-20T10:10:51;35.65;37.13
70826;SHT31;58446;41.490;22.098;2023-07-20T10:13:18;35.76;37.75
70826;SHT31;58446;41.490;22.098;2023-07-20T10:15:47;35.88;38.70
70826;SHT31;58446;41.490;22.098;2023-07-20T10:21:17;35.98;38.26
70826;SHT31;58446;41.490;22.098;2023-07-20T10:23:45;36.09;38.13
70826;SHT31;58446;41.490;22.098;2023-07-20T10:26:11;35.69;37.82
70826;SHT31;58446;41.490;22.098;2023-07-20T10:28:38;35.57;37.81
70826;SHT31;58446;41.490;22.098;2023-07-20T10:31:06;35.63;38.44
70826;SHT31;58446;41.490;22.098;2023-07-20T10:33:33;35.70;38.57
70826;SHT31;58446;41.490;22.098;2023-07-20T10:36:04;35.63;38.22
70826;SHT31;58446;41.490;22.098;2023-07-20T10:38:56;35.64;39.54
70826;SHT31;58446;41.490;22.098;2023-07-20T10:41:33;35.61;38.33
70826;SHT31;58446;41.490;22.098;2023-07-20T10:44:04;35.77;38.00
70826;SHT31;58446;41.490;22.098;2023-07-20T10:46:48;35.78;40.19
70826;SHT31;58446;41.490;22.098;2023-07-20T10:49:14;36.00;38.58
70826;SHT31;58446;41.490;22.098;2023-07-20T10:51:48;36.18;39.04
70826;SHT31;58446;41.490;22.098;2023-07-20T10:56:48;36.42;36.66
70826;SHT31;58446;41.490;22.098;2023-07-20T10:59:37;36.41;37.16
70826;SHT31;58446;41.490;22.098;2023-07-20T11:02:08;36.45;36.58
70826;SHT31;58446;41.490;22.098;2023-07-20T11:04:45;36.39;37.13
70826;SHT31;58446;41.490;22.098;2023-07-20T11:07:15;36.48;37.03
70826;SHT31;58446;41.490;22.098;2023-07-20T11:09:42;36.61;35.83
70826;SHT31;58446;41.490;22.098;2023-07-20T11:12:13;36.66;36.23
70826;SHT31;58446;41.490;22.098;2023-07-20T11:17:17;36.75;35.97
70826;SHT31;58446;41.490;22.098;2023-07-20T11:19:48;36.84;36.73
70826;SHT31;58446;41.490;22.098;2023-07-20T11:22:16;36.89;36.44
70826;SHT31;58446;41.490;22.098;2023-07-20T11:24:42;36.99;35.96
70826;SHT31;58446;41.490;22.098;2023-07-20T11:27:08;37.04;36.12
70826;SHT31;58446;41.490;22.098;2023-07-20T11:29:35;37.06;36.24
70826;SHT31;58446;41.490;22.098;2023-07-20T11:32:03;36.99;36.24
70826;SHT31;58446;41.490;22.098;2023-07-20T11:34:30;36.84;35.84
70826;SHT31;58446;41.490;22.098;2023-07-20T11:36:57;36.82;35.47
70826;SHT31;58446;41.490;22.098;2023-07-20T11:39:23;36.73;36.44
70826;SHT31;58446;41.490;22.098;2023-07-20T11:41:53;36.80;35.39
70826;SHT31;58446;41.490;22.098;2023-07-20T11:44:21;36.79;35.61
70826;SHT31;58446;41.490;22.098;2023-07-20T11:46:59;36.83;36.10
70826;SHT31;58446;41.490;22.098;2023-07-20T11:49:25;36.87;36.66
70826;SHT31;58446;41.490;22.098;2023-07-20T11:51:51;37.03;37.55
70826;SHT31;58446;41.490;22.098;2023-07-20T11:54:17;37.13;36.19
70826;SHT31;58446;41.490;22.098;2023-07-20T11:56:42;37.24;36.46
70826;SHT31;58446;41.490;22.098;2023-07-20T11:59:08;37.34;35.41
70826;SHT31;58446;41.490;22.098;2023-07-20T12:01:34;37.42;35.96
70826;SHT31;58446;41.490;22.098;2023-07-20T12:04:02;37.41;35.43
70826;SHT31;58446;41.490;22.098;2023-07-20T12:06:29;37.17;35.81
70826;SHT31;58446;41.490;22.098;2023-07-20T12:08:56;37.03;36.91
70826;SHT31;58446;41.490;22.098;2023-07-20T12:11:32;37.13;34.97
70826;SHT31;58446;41.490;22.098;2023-07-20T12:13:58;37.21;36.51
70826;SHT31;58446;41.490;22.098;2023-07-20T12:16:27;37.33;33.74
70826;SHT31;58446;41.490;22.098;2023-07-20T12:19:03;37.44;35.17
70826;SHT31;58446;41.490;22.098;2023-07-20T12:21:30;37.50;34.68
70826;SHT31;58446;41.490;22.098;2023-07-20T12:23:57;37.51;32.92
70826;SHT31;58446;41.490;22.098;2023-07-20T12:26:24;37.54;33.41
70826;SHT31;58446;41.490;22.098;2023-07-20T12:28:51;37.64;34.68
70826;SHT31;58446;41.490;22.098;2023-07-20T12:31:17;37.70;33.60
70826;SHT31;58446;41.490;22.098;2023-07-20T12:33:43;37.77;33.55
70826;SHT31;58446;41.490;22.098;2023-07-20T12:36:09;37.72;32.70
70826;SHT31;58446;41.490;22.098;2023-07-20T12:38:35;37.67;32.45
70826;SHT31;58446;41.490;22.098;2023-07-20T12:41:02;37.64;33.40
70826;SHT31;58446;41.490;22.098;2023-07-20T12:43:28;37.60;33.34
70826;SHT31;58446;41.490;22.098;2023-07-20T12:45:55;37.55;33.31
70826;SHT31;58446;41.490;22.098;2023-07-20T12:48:22;37.57;33.12
70826;SHT31;58446;41.490;22.098;2023-07-20T12:50:48;37.68;33.39
70826;SHT31;58446;41.490;22.098;2023-07-20T12:53:14;37.75;33.31
70826;SHT31;58446;41.490;22.098;2023-07-20T12:55:39;37.71;32.68
70826;SHT31;58446;41.490;22.098;2023-07-20T12:58:06;37.61;32.81
70826;SHT31;58446;41.490;22.098;2023-07-20T13:00:32;37.67;33.14
70826;SHT31;58446;41.490;22.098;2023-07-20T13:02:58;37.74;34.02
70826;SHT31;58446;41.490;22.098;2023-07-20T13:05:24;37.81;33.99
70826;SHT31;58446;41.490;22.098;2023-07-20T13:07:50;37.86;33.34
70826;SHT31;58446;41.490;22.098;2023-07-20T13:10:15;37.92;32.35
70826;SHT31;58446;41.490;22.098;2023-07-20T13:12:41;37.82;33.32
70826;SHT31;58446;41.490;22.098;2023-07-20T13:15:09;37.81;34.22
70826;SHT31;58446;41.490;22.098;2023-07-20T13:17:37;37.82;34.39
70826;SHT31;58446;41.490;22.098;2023-07-20T13:20:05;37.88;33.83
70826;SHT31;58446;41.490;22.098;2023-07-20T13:22:32;37.93;33.43
70826;SHT31;58446;41.490;22.098;2023-07-20T13:24:58;38.02;33.49
70826;SHT31;58446;41.490;22.098;2023-07-20T13:27:24;38.11;33.20
70826;SHT31;58446;41.490;22.098;2023-07-20T13:29:52;38.06;33.13
70826;SHT31;58446;41.490;22.098;2023-07-20T13:32:18;37.95;32.80
70826;SHT31;58446;41.490;22.098;2023-07-20T13:34:44;37.92;32.99
70826;SHT31;58446;41.490;22.098;2023-07-20T13:37:10;37.91;33.04
70826;SHT31;58446;41.490;22.098;2023-07-20T13:39:37;37.98;33.26
70826;SHT31;58446;41.490;22.098;2023-07-20T13:42:02;38.08;33.72
70826;SHT31;58446;41.490;22.098;2023-07-20T13:44:33;38.13;33.18
70826;SHT31;58446;41.490;22.098;2023-07-20T13:47:00;38.16;32.46
70826;SHT31;58446;41.490;22.098;2023-07-20T13:49:27;38.12;32.21
70826;SHT31;58446;41.490;22.098;2023-07-20T13:51:53;38.13;32.29
70826;SHT31;58446;41.490;22.098;2023-07-20T13:54:18;38.19;32.95
70826;SHT31;58446;41.490;22.098;2023-07-20T13:56:44;38.23;33.15
70826;SHT31;58446;41.490;22.098;2023-07-20T13:59:10;38.32;33.10
70826;SHT31;58446;41.490;22.098;2023-07-20T14:01:36;38.35;33.59
70826;SHT31;58446;41.490;22.098;2023-07-20T14:04:02;38.33;33.49
70826;SHT31;58446;41.490;22.098;2023-07-20T14:06:30;38.25;32.84
70826;SHT31;58446;41.490;22.098;2023-07-20T14:08:56;38.05;33.38
70826;SHT31;58446;41.490;22.098;2023-07-20T14:11:23;38.05;33.58
70826;SHT31;58446;41.490;22.098;2023-07-20T14:13:50;38.11;33.85
70826;SHT31;58446;41.490;22.098;2023-07-20T14:16:16;38.16;33.20
70826;SHT31;58446;41.490;22.098;2023-07-20T14:18:42;38.16;33.09
70826;SHT31;58446;41.490;22.098;2023-07-20T14:21:08;38.15;34.06
70826;SHT31;58446;41.490;22.098;2023-07-20T14:23:33;38.23;33.32
70826;SHT31;58446;41.490;22.098;2023-07-20T14:25:59;38.25;33.28
70826;SHT31;58446;41.490;22.098;2023-07-20T14:28:25;38.25;34.37
70826;SHT31;58446;41.490;22.098;2023-07-20T14:30:51;38.16;33.29
70826;SHT31;58446;41.490;22.098;2023-07-20T14:33:16;37.99;33.38
70826;SHT31;58446;41.490;22.098;2023-07-20T14:35:42;37.95;33.89
70826;SHT31;58446;41.490;22.098;2023-07-20T14:38:08;37.99;33.30
70826;SHT31;58446;41.490;22.098;2023-07-20T14:40:34;38.05;33.42
70826;SHT31;58446;41.490;22.098;2023-07-20T14:42:59;38.12;33.47
70826;SHT31;58446;41.490;22.098;2023-07-20T14:45:28;38.19;33.36
70826;SHT31;58446;41.490;22.098;2023-07-20T14:47:54;38.26;33.52
70826;SHT31;58446;41.490;22.098;2023-07-20T14:50:20;38.25;33.70
70826;SHT31;58446;41.490;22.098;2023-07-20T14:52:46;38.26;33.42
70826;SHT31;58446;41.490;22.098;2023-07-20T14:55:13;38.19;33.79
70826;SHT31;58446;41.490;22.098;2023-07-20T14:57:39;38.11;33.11
70826;SHT31;58446;41.490;22.098;2023-07-20T15:00:05;38.15;34.23
70826;SHT31;58446;41.490;22.098;2023-07-20T15:02:36;38.25;34.11
70826;SHT31;58446;41.490;22.098;2023-07-20T15:05:08;38.25;34.99
70826;SHT31;58446;41.490;22.098;2023-07-20T15:07:34;38.25;34.08
70826;SHT31;58446;41.490;22.098;2023-07-20T15:10:01;38.26;33.62
70826;SHT31;58446;41.490;22.098;2023-07-20T15:12:27;38.20;33.82
70826;SHT31;58446;41.490;22.098;2023-07-20T15:15:10;38.08;32.89
70826;SHT31;58446;41.490;22.098;2023-07-20T15:17:36;38.06;33.18
70826;SHT31;58446;41.490;22.098;2023-07-20T15:20:04;37.98;34.10
70826;SHT31;58446;41.490;22.098;2023-07-20T15:22:33;37.98;33.88
70826;SHT31;58446;41.490;22.098;2023-07-20T15:25:02;38.04;34.63
70826;SHT31;58446;41.490;22.098;2023-07-20T15:27:29;38.06;33.59
70826;SHT31;58446;41.490;22.098;2023-07-20T15:29:55;38.11;33.90